sensor_id;sensor_type;location;lat;lon;timestamp;temperature;humidity
66610;DHT22;53468;48.276;14.416;2023-01-16T00:02:07;3.00;99.90
66610;DHT22;53468;48.276;14.416;2023-01-16T00:07:11;3.00;99.90
66610;DHT22;53468;48.276;14.416;2023-01-16T00:12:13;3.00;99.90
66610;DHT22;53468;48.276;14.416;2023-01-16T00:17:15;3.10;99.90
66610;DHT22;53468;48.276;14.416;2023-01-16T00:22:19;3.00;99.90
66610;DHT22;53468;48.276;14.416;2023-01-16T00:27:20;3.00;99.90
66610;DHT22;53468;48.276;14.416;2023-01-16T00:32:22;3.00;99.90
66610;DHT22;53468;48.276;14.416;2023-01-16T00:37:26;2.90;99.90
66610;DHT22;53468;48.276;14.416;2023-01-16T00:42:28;2.90;99.90
66610;DHT22;53468;48.276;14.416;2023-01-16T00:47:30;2.90;99.90
66610;DHT22;53468;48.276;14.416;2023-01-16T00:52:34;2.80;99.90
66610;DHT22;53468;48.276;14.416;2023-01-16T00:57:36;2.90;99.90
66610;DHT22;53468;48.276;14.416;2023-01-16T01:02:38;2.90;99.90
66610;DHT22;53468;48.276;14.416;2023-01-16T01:07:41;3.00;99.90
66610;DHT22;53468;48.276;14.416;2023-01-16T01:12:43;2.80;99.90
66610;DHT22;53468;48.276;14.416;2023-01-16T01:17:45;3.00;99.90
66610;DHT22;53468;48.276;14.416;2023-01-16T01:22:49;2.90;99.90
66610;DHT22;53468;48.276;14.416;2023-01-16T01:27:51;3.00;99.90
66610;DHT22;53468;48.276;14.416;2023-01-16T01:32:53;3.00;99.90
66610;DHT22;53468;48.276;14.416;2023-01-16T01:37:58;2.90;99.90
66610;DHT22;53468;48.276;14.416;2023-01-16T01:43:01;2.80;99.90
66610;DHT22;53468;48.276;14.416;2023-01-16T01:48:09;2.90;99.90
66610;DHT22;53468;48.276;14.416;2023-01-16T01:53:22;2.90;99.90
66610;DHT22;53468;48.276;14.416;2023-01-16T01:58:26;2.90;99.90
66610;DHT22;53468;48.276;14.416;2023-01-16T02:03:32;3.00;99.90
66610;DHT22;53468;48.276;14.416;2023-01-16T02:08:37;2.90;99.90
66610;DHT22;53468;48.276;14.416;2023-01-16T02:13:40;3.00;99.90
66610;DHT22;53468;48.276;14.416;2023-01-16T02:18:42;3.00;99.90
66610;DHT22;53468;48.276;14.416;2023-01-16T02:24:31;3.00;99.90
66610;DHT22;53468;48.276;14.416;2023-01-16T02:30:06;3.00;99.90
66610;DHT22;53468;48.276;14.416;2023-01-16T02:35:29;2.90;99.90
66610;DHT22;53468;48.276;14.416;2023-01-16T02:40:42;2.90;99.90
66610;DHT22;53468;48.276;14.416;2023-01-16T02:45:49;2.90;99.90
66610;DHT22;53468;48.276;14.416;2023-01-16T02:51:01;3.00;99.90
66610;DHT22;53468;48.276;14.416;2023-01-16T02:56:06;2.90;99.90
66610;DHT22;53468;48.276;14.416;2023-01-16T03:01:10;2.90;99.90
66610;DHT22;53468;48.276;14.416;2023-01-16T03:06:26;2.80;99.90
66610;DHT22;53468;48.276;14.416;2023-01-16T03:11:31;2.90;99.90
66610;DHT22;53468;48.276;14.416;2023-01-16T03:16:41;2.80;99.90
66610;DHT22;53468;48.276;14.416;2023-01-16T03:22:06;2.90;99.90
66610;DHT22;53468;48.276;14.416;2023-01-16T03:27:15;2.90;99.90
66610;DHT22;53468;48.276;14.416;2023-01-16T03:32:27;2.80;99.90
66610;DHT22;53468;48.276;14.416;2023-01-16T03:37:35;2.80;99.90
66610;DHT22;53468;48.276;14.416;2023-01-16T03:42:45;2.80;99.90
66610;DHT22;53468;48.276;14.416;2023-01-16T03:47:54;2.90;99.90
66610;DHT22;53468;48.276;14.416;2023-01-16T03:53:05;2.80;99.90
66610;DHT22;53468;48.276;14.416;2023-01-16T03:58:12;2.80;99.90
66610;DHT22;53468;48.276;14.416;2023-01-16T04:03:20;2.90;99.90
66610;DHT22;53468;48.276;14.416;2023-01-16T04:08:28;2.80;99.90
66610;DHT22;53468;48.276;14.416;2023-01-16T04:13:35;2.80;99.90
66610;DHT22;53468;48.276;14.416;2023-01-16T04:18:38;2.80;99.90
66610;DHT22;53468;48.276;14.416;2023-01-16T04:23:42;2.90;99.90
66610;DHT22;53468;48.276;14.416;2023-01-16T04:28:44;2.90;99.90
66610;DHT22;53468;48.276;14.416;2023-01-16T04:33:46;2.90;99.90
66610;DHT22;53468;48.276;14.416;2023-01-16T04:38:51;2.80;99.90
66610;DHT22;53468;48.276;14.416;2023-01-16T04:43:54;2.70;99.90
66610;DHT22;53468;48.276;14.416;2023-01-16T04:48:57;2.80;99.90
66610;DHT22;53468;48.276;14.416;2023-01-16T04:54:00;2.80;99.90
66610;DHT22;53468;48.276;14.416;2023-01-16T04:59:02;2.80;99.90
66610;DHT22;53468;48.276;14.416;2023-01-16T05:04:06;2.90;99.90
66610;DHT22;53468;48.276;14.416;2023-01-16T05:09:10;2.80;99.90
66610;DHT22;53468;48.276;14.416;2023-01-16T05:14:12;2.90;99.90
66610;DHT22;53468;48.276;14.416;2023-01-16T05:19:14;2.90;99.90
66610;DHT22;53468;48.276;14.416;2023-01-16T05:24:18;2.80;99.90
66610;DHT22;53468;48.276;14.416;2023-01-16T05:29:20;2.80;99.90
66610;DHT22;53468;48.276;14.416;2023-01-16T05:34:22;2.90;99.90
66610;DHT22;53468;48.276;14.416;2023-01-16T05:39:25;2.80;99.90
66610;DHT22;53468;48.276;14.416;2023-01-16T05:44:27;2.80;99.90
66610;DHT22;53468;48.276;14.416;2023-01-16T05:49:30;2.80;99.90
66610;DHT22;53468;48.276;14.416;2023-01-16T05:54:33;2.80;99.90
66610;DHT22;53468;48.276;14.416;2023-01-16T05:59:36;2.80;99.90
66610;DHT22;53468;48.276;14.416;2023-01-16T06:04:38;2.80;99.90
66610;DHT22;53468;48.276;14.416;2023-01-16T06:09:41;2.70;99.90
66610;DHT22;53468;48.276;14.416;2023-01-16T06:15:24;2.70;99.90
66610;DHT22;53468;48.276;14.416;2023-01-16T06:21:03;2.80;99.90
66610;DHT22;53468;48.276;14.416;2023-01-16T07:31:09;2.60;99.90
66610;DHT22;53468;48.276;14.416;2023-01-16T07:42:07;2.50;99.90
66610;DHT22;53468;48.276;14.416;2023-01-16T15:59:23;4.20;99.90
66610;DHT22;53468;48.276;14.416;2023-01-16T16:04:26;4.10;99.90
66610;DHT22;53468;48.276;14.416;2023-01-16T16:09:28;3.90;99.90
66610;DHT22;53468;48.276;14.416;2023-01-16T16:14:34;3.90;99.90
66610;DHT22;53468;48.276;14.416;2023-01-16T16:19:54;3.90;99.90
66610;DHT22;53468;48.276;14.416;2023-01-16T16:24:56;3.80;99.90
66610;DHT22;53468;48.276;14.416;2023-01-16T16:30:03;3.80;99.90
66610;DHT22;53468;48.276;14.416;2023-01-16T16:35:15;3.80;99.90
66610;DHT22;53468;48.276;14.416;2023-01-16T16:40:19;3.80;99.90
66610;DHT22;53468;48.276;14.416;2023-01-16T16:45:25;3.70;99.90
66610;DHT22;53468;48.276;14.416;2023-01-16T16:50:30;3.70;99.90
66610;DHT22;53468;48.276;14.416;2023-01-16T16:55:34;3.70;99.90
66610;DHT22;53468;48.276;14.416;2023-01-16T17:00:38;3.70;99.90
66610;DHT22;53468;48.276;14.416;2023-01-16T17:05:40;3.70;99.90
66610;DHT22;53468;48.276;14.416;2023-01-16T17:10:43;3.60;99.90
66610;DHT22;53468;48.276;14.416;2023-01-16T17:15:53;3.60;99.90
66610;DHT22;53468;48.276;14.416;2023-01-16T17:20:56;3.60;99.90
66610;DHT22;53468;48.276;14.416;2023-01-16T17:25:58;3.50;99.90
66610;DHT22;53468;48.276;14.416;2023-01-16T17:31:02;3.50;99.90
66610;DHT22;53468;48.276;14.416;2023-01-16T17:36:04;3.30;99.90
66610;DHT22;53468;48.276;14.416;2023-01-16T17:41:15;3.30;99.90
66610;DHT22;53468;48.276;14.416;2023-01-16T17:46:20;3.30;99.90
66610;DHT22;53468;48.276;14.416;2023-01-16T17:51:24;3.20;99.90
66610;DHT22;53468;48.276;14.416;2023-01-16T17:56:27;3.10;99.90
66610;DHT22;53468;48.276;14.416;2023-01-16T18:01:30;3.10;99.90
66610;DHT22;53468;48.276;14.416;2023-01-16T18:06:37;3.10;99.90
66610;DHT22;53468;48.276;14.416;2023-01-16T18:11:42;3.10;99.90
66610;DHT22;53468;48.276;14.416;2023-01-16T18:17:03;3.10;99.90
66610;DHT22;53468;48.276;14.416;2023-01-16T18:22:24;3.10;99.90
66610;DHT22;53468;48.276;14.416;2023-01-16T18:27:27;3.00;99.90
66610;DHT22;53468;48.276;14.416;2023-01-16T18:32:31;3.00;99.90
66610;DHT22;53468;48.276;14.416;2023-01-16T18:37:37;3.00;99.90
66610;DHT22;53468;48.276;14.416;2023-01-16T18:42:39;2.90;99.90
66610;DHT22;53468;48.276;14.416;2023-01-16T18:48:01;2.90;99.90
66610;DHT22;53468;48.276;14.416;2023-01-16T18:53:23;3.00;99.90
66610;DHT22;53468;48.276;14.416;2023-01-16T18:58:42;2.90;99.90
66610;DHT22;53468;48.276;14.416;2023-01-16T19:04:03;2.80;99.90
66610;DHT22;53468;48.276;14.416;2023-01-16T19:09:05;2.70;99.90
66610;DHT22;53468;48.276;14.416;2023-01-16T19:14:07;2.70;99.90
66610;DHT22;53468;48.276;14.416;2023-01-16T19:19:11;2.50;99.90
66610;DHT22;53468;48.276;14.416;2023-01-16T19:24:14;2.40;99.90
66610;DHT22;53468;48.276;14.416;2023-01-16T19:29:18;2.30;99.90
66610;DHT22;53468;48.276;14.416;2023-01-16T19:34:22;2.20;99.90
66610;DHT22;53468;48.276;14.416;2023-01-16T19:39:26;2.20;99.90
66610;DHT22;53468;48.276;14.416;2023-01-16T19:44:28;2.00;99.90
66610;DHT22;53468;48.276;14.416;2023-01-16T19:49:49;1.80;99.90
66610;DHT22;53468;48.276;14.416;2023-01-16T19:54:52;1.90;99.90
66610;DHT22;53468;48.276;14.416;2023-01-16T19:59:54;2.00;99.90
66610;DHT22;53468;48.276;14.416;2023-01-16T20:04:57;2.00;99.90
66610;DHT22;53468;48.276;14.416;2023-01-16T20:10:00;1.90;99.90
66610;DHT22;53468;48.276;14.416;2023-01-16T20:15:02;2.00;99.90
66610;DHT22;53468;48.276;14.416;2023-01-16T20:20:07;1.90;99.90
66610;DHT22;53468;48.276;14.416;2023-01-16T20:25:10;1.90;99.90
66610;DHT22;53468;48.276;14.416;2023-01-16T20:30:13;1.80;99.90
66610;DHT22;53468;48.276;14.416;2023-01-16T20:35:37;1.90;99.90
66610;DHT22;53468;48.276;14.416;2023-01-16T20:40:39;1.90;99.90
66610;DHT22;53468;48.276;14.416;2023-01-16T20:45:42;1.90;99.90
66610;DHT22;53468;48.276;14.416;2023-01-16T20:50:56;1.80;99.90
66610;DHT22;53468;48.276;14.416;2023-01-16T20:56:02;1.80;99.90
66610;DHT22;53468;48.276;14.416;2023-01-16T21:01:04;1.80;99.90
66610;DHT22;53468;48.276;14.416;2023-01-16T21:06:08;1.70;99.90
66610;DHT22;53468;48.276;14.416;2023-01-16T21:11:10;1.80;99.90
66610;DHT22;53468;48.276;14.416;2023-01-16T21:16:26;1.60;99.90
66610;DHT22;53468;48.276;14.416;2023-01-16T21:21:47;1.60;99.90
66610;DHT22;53468;48.276;14.416;2023-01-16T21:26:49;1.70;99.90
66610;DHT22;53468;48.276;14.416;2023-01-16T21:31:52;1.70;99.90
66610;DHT22;53468;48.276;14.416;2023-01-16T21:36:55;1.60;99.90
66610;DHT22;53468;48.276;14.416;2023-01-16T21:41:58;1.60;99.90
66610;DHT22;53468;48.276;14.416;2023-01-16T21:47:17;1.40;99.90
66610;DHT22;53468;48.276;14.416;2023-01-16T21:52:22;1.50;99.90
66610;DHT22;53468;48.276;14.416;2023-01-16T21:57:24;1.50;99.90
66610;DHT22;53468;48.276;14.416;2023-01-16T22:02:26;1.50;99.90
66610;DHT22;53468;48.276;14.416;2023-01-16T22:07:31;1.50;99.90
66610;DHT22;53468;48.276;14.416;2023-01-16T22:12:33;1.60;99.90
66610;DHT22;53468;48.276;14.416;2023-01-16T22:17:59;1.40;99.90
66610;DHT22;53468;48.276;14.416;2023-01-16T22:23:15;1.50;99.90
66610;DHT22;53468;48.276;14.416;2023-01-16T22:28:22;1.40;99.90
66610;DHT22;53468;48.276;14.416;2023-01-16T22:33:25;1.40;99.90
66610;DHT22;53468;48.276;14.416;2023-01-16T22:38:33;1.40;99.90
66610;DHT22;53468;48.276;14.416;2023-01-16T22:43:37;1.50;99.90
66610;DHT22;53468;48.276;14.416;2023-01-16T22:48:58;1.40;99.90
66610;DHT22;53468;48.276;14.416;2023-01-16T22:54:01;1.30;99.90
66610;DHT22;53468;48.276;14.416;2023-01-16T22:59:04;1.30;99.90
66610;DHT22;53468;48.276;14.416;2023-01-16T23:04:06;1.20;99.90
66610;DHT22;53468;48.276;14.416;2023-01-16T23:09:09;1.20;99.90
66610;DHT22;53468;48.276;14.416;2023-01-16T23:14:12;1.20;99.90
66610;DHT22;53468;48.276;14.416;2023-01-16T23:19:18;1.20;99.90
66610;DHT22;53468;48.276;14.416;2023-01-16T23:24:24;1.30;99.90
66610;DHT22;53468;48.276;14.416;2023-01-16T23:29:26;1.20;99.90
66610;DHT22;53468;48.276;14.416;2023-01-16T23:34:28;1.30;99.90
66610;DHT22;53468;48.276;14.416;2023-01-16T23:39:31;1.30;99.90
66610;DHT22;53468;48.276;14.416;2023-01-16T23:44:35;1.40;99.90
66610;DHT22;53468;48.276;14.416;2023-01-16T23:49:38;1.60;99.90
66610;DHT22;53468;48.276;14.416;2023-01-16T23:54:42;1.50;99.90
66610;DHT22;53468;48.276;14.416;2023-01-16T23:59:44;1.70;99.90
